createdAt,value
2017-04-06T00:00:30.400Z,82.00
2017-04-06T00:01:29.813Z,82.10
2017-04-06T00:02:29.250Z,82.20
2017-04-06T00:03:28.596Z,82.00
2017-04-06T00:04:27.970Z,81.90
2017-04-06T00:05:27.353Z,81.80
2017-04-06T00:06:27.104Z,81.50
2017-04-06T00:07:26.508Z,81.40
2017-04-06T00:08:25.831Z,81.50
2017-04-06T00:09:25.149Z,81.50
2017-04-06T00:10:24.529Z,81.60
2017-04-06T00:11:24.632Z,81.60
2017-04-06T00:12:24.050Z,81.70
2017-04-06T00:13:23.481Z,81.70
2017-04-06T00:14:22.816Z,81.60
2017-04-06T00:15:22.385Z,81.70
2017-04-06T00:16:21.851Z,81.70
2017-04-06T00:17:21.193Z,81.70
2017-04-06T00:18:20.587Z,81.80
2017-04-06T00:19:20.888Z,81.70
2017-04-06T00:20:20.252Z,81.80
2017-04-06T00:21:19.541Z,81.60
2017-04-06T00:22:18.845Z,81.50
2017-04-06T00:23:18.145Z,81.50
2017-04-06T00:24:17.529Z,81.50
2017-04-06T00:25:18.083Z,81.60
2017-04-06T00:26:17.366Z,81.70
2017-04-06T00:27:16.644Z,81.70
2017-04-06T00:28:15.980Z,81.80
2017-04-06T00:29:15.311Z,81.90
2017-04-06T00:30:14.651Z,82.00
2017-04-06T00:31:14.023Z,82.00
2017-04-06T00:32:13.624Z,82.10
2017-04-06T00:33:12.937Z,82.00
2017-04-06T00:34:12.265Z,81.90
2017-04-06T00:35:11.616Z,81.90
2017-04-06T00:36:11.009Z,81.90
2017-04-06T00:37:10.358Z,82.00
2017-04-06T00:38:09.759Z,82.30
2017-04-06T00:39:09.150Z,82.30
2017-04-06T00:40:08.522Z,82.10
2017-04-06T00:41:07.922Z,82.70
2017-04-06T00:42:07.227Z,82.10
2017-04-06T00:43:06.659Z,82.00
2017-04-06T00:44:05.916Z,82.10
2017-04-06T00:45:05.255Z,82.10
2017-04-06T00:46:04.593Z,82.20
2017-04-06T00:47:04.022Z,82.40
2017-04-06T00:48:03.334Z,82.50
2017-04-06T00:49:02.710Z,82.80
2017-04-06T00:50:02.053Z,82.80
2017-04-06T00:51:01.434Z,82.90
2017-04-06T00:52:03.517Z,83.00
2017-04-06T00:53:02.984Z,83.00
2017-04-06T00:54:02.273Z,83.20
2017-04-06T00:55:01.592Z,83.40
2017-04-06T00:56:00.948Z,83.40
2017-04-06T00:57:00.253Z,83.60
2017-04-06T00:57:59.510Z,83.90
2017-04-06T00:58:58.934Z,83.80
2017-04-06T00:59:58.259Z,84.20
2017-04-06T01:00:58.043Z,84.30
2017-04-06T01:01:57.399Z,84.40
2017-04-06T01:02:57.264Z,84.50
2017-04-06T01:03:56.651Z,84.50
2017-04-06T01:04:55.980Z,84.50
2017-04-06T01:05:55.383Z,84.60
2017-04-06T01:06:54.691Z,84.50
2017-04-06T01:07:54.070Z,84.70
2017-04-06T01:08:53.428Z,84.90
2017-04-06T01:09:53.482Z,85.30
2017-04-06T01:10:52.855Z,85.20
2017-04-06T01:11:52.194Z,85.20
2017-04-06T01:12:51.558Z,85.10
2017-04-06T01:13:50.848Z,85.20
2017-04-06T01:14:50.137Z,85.40
2017-04-06T01:15:49.462Z,85.30
2017-04-06T01:16:48.751Z,85.60
2017-04-06T01:17:48.043Z,86.00
2017-04-06T01:18:47.328Z,86.20
2017-04-06T01:19:46.679Z,86.50
2017-04-06T01:20:46.109Z,86.30
2017-04-06T01:21:45.401Z,86.10
2017-04-06T01:22:44.765Z,85.90
2017-04-06T01:23:44.102Z,85.80
2017-04-06T01:24:43.415Z,85.90
2017-04-06T01:25:42.686Z,85.80
2017-04-06T01:26:42.039Z,85.70
2017-04-06T01:27:41.331Z,85.80
2017-04-06T01:28:40.638Z,85.80
2017-04-06T01:29:39.947Z,85.70
2017-04-06T01:30:39.256Z,85.70
2017-04-06T01:31:38.748Z,86.10
2017-04-06T01:32:38.090Z,85.90
2017-04-06T01:33:37.481Z,85.90
2017-04-06T01:34:36.866Z,86.00
2017-04-06T01:35:36.315Z,86.10
2017-04-06T01:36:35.630Z,86.90
2017-04-06T01:37:34.971Z,86.00
2017-04-06T01:38:34.239Z,86.10
2017-04-06T01:39:33.551Z,86.20
2017-04-06T01:40:32.842Z,86.40
2017-04-06T01:41:32.225Z,86.30
2017-04-06T01:42:31.619Z,86.20
2017-04-06T01:43:30.920Z,86.20
2017-04-06T01:44:30.215Z,86.10
2017-04-06T01:45:29.770Z,86.10
2017-04-06T01:46:29.062Z,86.10
2017-04-06T01:47:28.593Z,86.10
2017-04-06T01:48:28.670Z,86.20
2017-04-06T01:49:28.024Z,86.50
2017-04-06T01:50:27.383Z,86.60
2017-04-06T01:51:27.512Z,86.60
2017-04-06T01:52:26.925Z,86.60
2017-04-06T01:53:26.286Z,86.80
2017-04-06T01:54:25.660Z,87.00
2017-04-06T01:55:25.059Z,86.90
2017-04-06T01:56:25.156Z,86.80
2017-04-06T01:57:24.539Z,86.70
2017-04-06T01:58:23.851Z,86.70
2017-04-06T01:59:23.949Z,86.70
2017-04-06T02:00:23.290Z,86.60
2017-04-06T02:01:22.634Z,86.60
2017-04-06T02:02:22.085Z,86.60
2017-04-06T02:03:21.414Z,86.50
2017-04-06T02:04:20.687Z,86.50
2017-04-06T02:05:19.970Z,86.40
2017-04-06T02:06:19.264Z,86.40
2017-04-06T02:07:19.077Z,86.40
2017-04-06T02:08:18.383Z,86.40
2017-04-06T02:09:18.478Z,86.50
2017-04-06T02:10:17.781Z,86.40
2017-04-06T02:11:17.892Z,86.10
2017-04-06T02:12:18.318Z,86.40
2017-04-06T02:13:17.622Z,86.50
2017-04-06T02:14:16.954Z,86.50
2017-04-06T02:15:16.243Z,86.40
2017-04-06T02:16:15.599Z,86.50
2017-04-06T02:17:14.962Z,86.70
2017-04-06T02:18:15.060Z,86.50
2017-04-06T02:19:14.340Z,86.30
2017-04-06T02:20:13.818Z,86.50
2017-04-06T02:21:13.159Z,86.60
2017-04-06T02:22:12.464Z,86.40
2017-04-06T02:23:11.802Z,87.00
2017-04-06T02:24:11.169Z,86.40
2017-04-06T02:25:10.487Z,86.50
2017-04-06T02:26:09.791Z,86.60
2017-04-06T02:27:09.032Z,86.70
2017-04-06T02:28:08.436Z,86.80
2017-04-06T02:29:07.790Z,86.50
2017-04-06T02:30:07.106Z,86.50
2017-04-06T02:31:06.431Z,86.40
2017-04-06T02:32:05.755Z,86.30
2017-04-06T02:33:05.924Z,86.30
2017-04-06T02:34:05.265Z,86.30
2017-04-06T02:35:04.537Z,86.30
2017-04-06T02:36:04.646Z,86.50
2017-04-06T02:37:04.716Z,86.60
2017-04-06T02:38:04.103Z,86.50
2017-04-06T02:39:03.465Z,86.60
2017-04-06T02:40:02.767Z,86.50
2017-04-06T02:41:02.124Z,86.40
2017-04-06T02:42:02.166Z,86.30
2017-04-06T02:43:01.872Z,86.30
2017-04-06T02:44:01.208Z,86.30
2017-04-06T02:45:00.522Z,86.30
2017-04-06T02:45:59.796Z,86.30
2017-04-06T02:46:59.118Z,86.30
2017-04-06T02:47:58.446Z,86.40
2017-04-06T02:48:57.810Z,86.50
2017-04-06T02:49:57.147Z,86.50
2017-04-06T02:50:56.463Z,86.60
2017-04-06T02:51:55.853Z,86.50
2017-04-06T02:52:55.873Z,86.60
2017-04-06T02:53:55.173Z,86.70
2017-04-06T02:54:54.465Z,86.60
2017-04-06T02:55:53.809Z,86.60
2017-04-06T02:56:53.132Z,86.80
2017-04-06T02:57:53.154Z,86.90
2017-04-06T02:58:52.485Z,86.80
2017-04-06T02:59:51.849Z,86.90
2017-04-06T03:00:51.316Z,86.90
2017-04-06T03:01:51.014Z,87.00
2017-04-06T03:03:49.928Z,87.00
2017-04-06T03:04:49.261Z,87.20
2017-04-06T03:05:48.583Z,87.20
2017-04-06T03:06:47.884Z,87.20
2017-04-06T03:07:47.198Z,87.40
2017-04-06T03:08:46.951Z,87.30
2017-04-06T03:09:46.240Z,87.40
2017-04-06T03:10:46.291Z,87.40
2017-04-06T03:11:45.593Z,87.40
2017-04-06T03:12:44.917Z,87.40
2017-04-06T03:13:44.308Z,87.70
2017-04-06T03:14:43.654Z,87.70
2017-04-06T03:15:42.940Z,87.80
2017-04-06T03:16:42.425Z,87.70
2017-04-06T03:17:41.793Z,87.80
2017-04-06T03:18:41.079Z,88.20
2017-04-06T03:19:41.183Z,88.20
2017-04-06T03:21:40.058Z,88.10
2017-04-06T03:22:39.376Z,88.10
2017-04-06T03:23:38.698Z,88.10
2017-04-06T03:24:38.046Z,88.20
2017-04-06T03:25:38.100Z,88.30
2017-04-06T03:26:37.389Z,88.20
2017-04-06T03:27:36.731Z,88.30
2017-04-06T03:28:36.784Z,88.40
2017-04-06T03:29:36.094Z,88.60
2017-04-06T03:30:35.490Z,88.60
2017-04-06T03:31:34.778Z,88.60
2017-04-06T03:32:34.120Z,88.80
2017-04-06T03:33:33.436Z,88.70
2017-04-06T03:34:32.795Z,88.60
2017-04-06T03:35:32.250Z,88.70
2017-04-06T03:36:31.541Z,88.80
2017-04-06T03:37:30.863Z,88.80
2017-04-06T03:38:30.924Z,88.80
2017-04-06T03:39:30.268Z,88.80
2017-04-06T03:40:30.305Z,88.90
2017-04-06T03:41:29.746Z,89.00
2017-04-06T03:42:29.025Z,89.20
2017-04-06T03:43:28.346Z,89.20
2017-04-06T03:44:28.528Z,89.20
2017-04-06T03:45:27.885Z,89.30
2017-04-06T03:46:27.191Z,89.20
2017-04-06T03:47:26.535Z,89.20
2017-04-06T03:48:25.843Z,89.20
2017-04-06T03:49:25.208Z,89.10
2017-04-06T03:50:25.261Z,89.20
2017-04-06T03:51:24.605Z,89.20
2017-04-06T03:52:24.651Z,89.40
2017-04-06T03:53:24.019Z,89.40
2017-04-06T03:54:23.433Z,89.40
2017-04-06T03:55:22.773Z,89.60
2017-04-06T03:56:22.095Z,89.70
2017-04-06T03:57:21.378Z,89.70
2017-04-06T03:58:20.718Z,90.10
2017-04-06T03:59:20.036Z,89.50
2017-04-06T04:00:19.396Z,89.60
2017-04-06T04:01:18.759Z,89.50
2017-04-06T04:02:18.060Z,89.80
2017-04-06T04:03:18.129Z,89.80
2017-04-06T04:04:17.500Z,89.70
2017-04-06T04:05:16.874Z,89.60
2017-04-06T04:06:16.474Z,89.70
2017-04-06T04:07:15.737Z,89.80
2017-04-06T04:08:15.040Z,89.80
2017-04-06T04:10:18.359Z,90.00
2017-04-06T04:11:17.690Z,90.10
2017-04-06T04:12:17.008Z,90.20
2017-04-06T04:13:16.319Z,90.20
2017-04-06T04:14:15.639Z,90.20
2017-04-06T04:15:15.701Z,90.20
2017-04-06T04:16:15.086Z,90.20
2017-04-06T04:17:14.430Z,90.30
2017-04-06T04:18:13.753Z,90.30
2017-04-06T04:19:13.090Z,90.20
2017-04-06T04:20:12.776Z,90.30
2017-04-06T04:21:12.123Z,90.20
2017-04-06T04:22:11.465Z,90.20
2017-04-06T04:23:10.775Z,90.20
2017-04-06T04:24:10.834Z,90.10
2017-04-06T04:25:10.192Z,90.20
2017-04-06T04:26:10.326Z,90.20
2017-04-06T04:27:09.662Z,90.30
2017-04-06T04:29:09.343Z,90.40
2017-04-06T04:30:08.734Z,90.40
2017-04-06T04:31:08.572Z,90.40
2017-04-06T04:32:09.696Z,90.50
2017-04-06T04:33:09.057Z,90.50
2017-04-06T04:34:08.617Z,90.50
2017-04-06T04:35:08.747Z,90.50
2017-04-06T04:36:08.112Z,90.50
2017-04-06T04:37:08.205Z,90.50
2017-04-06T04:38:07.557Z,90.60
2017-04-06T04:39:06.842Z,90.90
2017-04-06T04:40:06.116Z,90.70
2017-04-06T04:41:05.463Z,90.70
2017-04-06T04:42:04.767Z,90.70
2017-04-06T04:43:05.434Z,90.60
2017-04-06T04:44:04.735Z,90.60
2017-04-06T04:45:04.747Z,90.50
2017-04-06T04:46:04.366Z,90.60
2017-04-06T04:47:03.661Z,90.90
2017-04-06T04:48:02.954Z,91.10
2017-04-06T04:49:02.375Z,91.40
2017-04-06T04:50:01.746Z,91.20
2017-04-06T04:51:01.067Z,90.80
2017-04-06T04:52:00.521Z,90.80
2017-04-06T04:53:00.571Z,90.50
2017-04-06T04:53:59.929Z,90.20
2017-04-06T04:54:59.912Z,90.20
2017-04-06T04:55:59.415Z,90.40
2017-04-06T04:56:59.478Z,90.20
2017-04-06T04:57:58.785Z,90.10
2017-04-06T04:58:58.071Z,90.10
2017-04-06T04:59:57.360Z,89.90
2017-04-06T05:00:56.632Z,90.00
2017-04-06T05:01:55.980Z,90.10
2017-04-06T05:02:55.290Z,90.10
2017-04-06T05:03:55.301Z,90.00
2017-04-06T05:04:55.350Z,90.00
2017-04-06T05:05:56.212Z,90.00
2017-04-06T05:06:55.543Z,90.10
2017-04-06T05:07:54.876Z,90.50
2017-04-06T05:08:54.170Z,90.10
2017-04-06T05:09:53.459Z,89.80
2017-04-06T05:10:52.747Z,89.40
2017-04-06T05:11:52.060Z,89.10
2017-04-06T05:12:52.052Z,89.20
2017-04-06T05:13:51.458Z,89.30
2017-04-06T05:14:51.564Z,90.00
2017-04-06T05:15:50.852Z,89.50
2017-04-06T05:16:50.145Z,89.70
2017-04-06T05:17:49.432Z,89.80
2017-04-06T05:18:48.848Z,90.00
2017-04-06T05:19:48.860Z,90.00
2017-04-06T05:20:48.187Z,90.20
2017-04-06T05:21:47.534Z,90.10
2017-04-06T05:22:47.592Z,90.10
2017-04-06T05:23:46.896Z,90.40
2017-04-06T05:24:46.297Z,90.20
2017-04-06T05:25:45.596Z,90.20
2017-04-06T05:26:45.266Z,90.20
2017-04-06T05:27:44.559Z,90.20
2017-04-06T05:28:43.866Z,90.20
2017-04-06T05:29:43.153Z,90.20
2017-04-06T05:30:42.437Z,90.10
2017-04-06T05:31:41.724Z,90.10
2017-04-06T05:32:41.086Z,90.20
2017-04-06T05:33:41.308Z,90.20
2017-04-06T05:34:40.566Z,90.20
2017-04-06T05:35:39.867Z,90.10
2017-04-06T05:36:39.169Z,90.20
2017-04-06T05:37:38.508Z,90.10
2017-04-06T05:38:39.133Z,90.30
2017-04-06T05:39:38.455Z,90.10
2017-04-06T05:40:37.878Z,90.00
2017-04-06T05:41:37.234Z,90.10
2017-04-06T05:42:36.705Z,90.10
2017-04-06T05:43:35.995Z,90.20
2017-04-06T05:44:35.254Z,90.20
2017-04-06T05:45:34.567Z,90.30
2017-04-06T05:46:33.874Z,90.40
2017-04-06T05:47:33.175Z,90.30
2017-04-06T05:48:33.230Z,90.30
2017-04-06T05:49:32.502Z,90.20
2017-04-06T05:50:31.831Z,90.10
2017-04-06T05:51:31.092Z,90.00
2017-04-06T05:52:30.507Z,89.90
2017-04-06T05:53:29.927Z,89.80
2017-04-06T05:54:31.579Z,89.80
2017-04-06T05:55:31.208Z,89.80
2017-04-06T05:56:30.542Z,89.80
2017-04-06T05:57:29.929Z,90.00
2017-04-06T05:58:29.266Z,89.90
2017-04-06T05:59:28.619Z,90.00
2017-04-06T06:00:28.685Z,90.40
2017-04-06T06:01:27.967Z,90.00
2017-04-06T06:02:27.356Z,89.90
2017-04-06T06:03:26.629Z,89.80
2017-04-06T06:04:25.908Z,89.70
2017-04-06T06:05:26.405Z,89.70
2017-04-06T06:06:25.726Z,89.60
2017-04-06T06:07:25.068Z,89.40
2017-04-06T06:08:24.682Z,89.60
2017-04-06T06:09:24.027Z,89.60
2017-04-06T06:10:23.350Z,89.50
2017-04-06T06:11:22.641Z,89.40
2017-04-06T06:12:21.978Z,89.30
2017-04-06T06:13:21.260Z,89.20
2017-04-06T06:14:21.343Z,89.20
2017-04-06T06:15:20.715Z,89.10
2017-04-06T06:17:19.673Z,89.10
2017-04-06T06:18:19.009Z,89.00
2017-04-06T06:19:19.091Z,89.10
2017-04-06T06:20:18.417Z,89.00
2017-04-06T06:21:17.704Z,89.00
2017-04-06T06:22:17.046Z,89.00
2017-04-06T06:23:16.558Z,89.00
2017-04-06T06:24:15.865Z,88.90
2017-04-06T06:25:15.220Z,88.80
2017-04-06T06:26:14.668Z,88.80
2017-04-06T06:27:14.070Z,88.80
2017-04-06T06:28:13.429Z,88.80
2017-04-06T06:29:12.681Z,89.00
2017-04-06T06:30:11.947Z,89.20
2017-04-06T06:31:12.512Z,89.40
2017-04-06T06:32:11.991Z,89.40
2017-04-06T06:33:11.524Z,89.30
2017-04-06T06:34:10.766Z,89.10
2017-04-06T06:35:10.120Z,88.90
2017-04-06T06:37:09.132Z,88.70
2017-04-06T06:38:09.231Z,88.40
2017-04-06T06:39:09.218Z,88.20
2017-04-06T06:40:08.477Z,87.90
2017-04-06T06:41:07.790Z,87.80
2017-04-06T06:42:07.174Z,87.90
2017-04-06T06:43:06.490Z,87.80
2017-04-06T06:44:06.524Z,87.60
2017-04-06T06:45:05.843Z,87.60
2017-04-06T06:46:05.149Z,87.70
2017-04-06T06:48:04.347Z,87.20
2017-04-06T06:49:03.669Z,87.30
2017-04-06T06:50:06.573Z,87.60
2017-04-06T06:51:05.891Z,87.70
2017-04-06T06:52:05.195Z,87.50
2017-04-06T06:53:05.686Z,87.60
2017-04-06T06:54:05.023Z,87.60
2017-04-06T06:55:04.332Z,87.40
2017-04-06T06:56:04.417Z,87.20
2017-04-06T06:57:03.763Z,87.00
2017-04-06T06:58:03.116Z,86.90
2017-04-06T06:59:03.132Z,87.00
2017-04-06T07:00:02.416Z,87.60
2017-04-06T07:01:02.529Z,87.20
2017-04-06T07:02:01.829Z,87.10
2017-04-06T07:03:01.219Z,87.20
2017-04-06T07:04:00.562Z,88.10
2017-04-06T07:04:59.856Z,87.40
2017-04-06T07:05:59.139Z,86.70
2017-04-06T07:06:58.457Z,86.40
2017-04-06T07:07:58.457Z,86.90
2017-04-06T07:08:58.528Z,85.90
2017-04-06T07:09:57.812Z,86.30
2017-04-06T07:10:57.148Z,86.20
2017-04-06T07:11:56.404Z,86.30
2017-04-06T07:12:55.712Z,86.50
2017-04-06T07:13:55.035Z,86.60
2017-04-06T07:14:55.050Z,86.80
2017-04-06T07:15:54.301Z,86.50
2017-04-06T07:16:54.618Z,86.10
2017-04-06T07:17:53.884Z,85.70
2017-04-06T07:18:53.192Z,85.40
2017-04-06T07:19:52.460Z,85.60
2017-04-06T07:20:51.718Z,85.50
2017-04-06T07:21:51.031Z,85.10
2017-04-06T07:22:50.307Z,84.90
2017-04-06T07:23:49.745Z,84.90
2017-04-06T07:24:49.036Z,84.80
2017-04-06T07:25:48.355Z,84.80
2017-04-06T07:26:47.599Z,84.90
2017-04-06T07:27:46.848Z,85.10
2017-04-06T07:28:46.152Z,84.70
2017-04-06T07:29:45.461Z,84.20
2017-04-06T07:30:45.473Z,83.40
2017-04-06T07:31:44.755Z,83.30
2017-04-06T07:32:44.020Z,83.50
2017-04-06T07:33:43.308Z,83.40
2017-04-06T07:34:49.558Z,83.30
2017-04-06T07:35:48.856Z,82.50
2017-04-06T07:36:48.594Z,82.70
2017-04-06T07:37:48.088Z,82.70
2017-04-06T07:38:47.537Z,82.80
2017-04-06T07:39:46.977Z,82.70
2017-04-06T07:40:46.333Z,82.90
2017-04-06T07:41:45.784Z,83.00
2017-04-06T07:42:45.183Z,82.90
2017-04-06T07:43:45.326Z,82.30
2017-04-06T07:44:44.867Z,82.10
2017-04-06T07:45:44.259Z,81.60
2017-04-06T07:46:43.709Z,81.10
2017-04-06T07:47:43.095Z,81.10
2017-04-06T07:48:42.497Z,80.70
2017-04-06T07:49:41.902Z,80.40
2017-04-06T07:50:41.504Z,80.30
2017-04-06T07:51:40.985Z,80.30
2017-04-06T07:52:40.491Z,80.20
2017-04-06T07:53:39.969Z,79.90
2017-04-06T07:54:39.373Z,79.90
2017-04-06T07:55:38.820Z,79.30
2017-04-06T07:56:39.408Z,78.80
2017-04-06T07:57:39.760Z,78.70
2017-04-06T07:58:39.273Z,78.80
2017-04-06T07:59:38.827Z,78.70
2017-04-06T08:00:38.253Z,78.90
2017-04-06T08:01:37.645Z,78.70
2017-04-06T08:02:37.099Z,79.20
2017-04-06T08:03:36.526Z,77.40
2017-04-06T08:04:36.109Z,77.40
2017-04-06T08:05:36.274Z,77.40
2017-04-06T08:06:35.814Z,77.30
2017-04-06T08:07:35.969Z,77.10
2017-04-06T08:08:35.409Z,76.70
2017-04-06T08:09:34.804Z,76.10
2017-04-06T08:10:34.219Z,75.30
2017-04-06T08:11:34.486Z,74.90
2017-04-06T08:12:34.361Z,74.70
2017-04-06T08:13:33.807Z,74.60
2017-04-06T08:14:33.196Z,74.60
2017-04-06T08:15:32.738Z,74.90
2017-04-06T08:16:32.645Z,74.80
2017-04-06T08:17:32.063Z,74.40
2017-04-06T08:18:31.422Z,73.70
2017-04-06T08:19:31.130Z,72.60
2017-04-06T08:20:30.575Z,72.20
2017-04-06T08:21:30.209Z,72.30
2017-04-06T08:22:29.718Z,72.50
2017-04-06T08:23:29.180Z,72.30
2017-04-06T08:24:29.922Z,72.20
2017-04-06T08:25:29.632Z,72.10
2017-04-06T08:26:30.036Z,72.20
2017-04-06T08:27:29.422Z,72.90
2017-04-06T08:28:30.619Z,72.20
2017-04-06T08:29:30.046Z,72.20
2017-04-06T08:30:30.278Z,72.40
2017-04-06T08:31:29.681Z,72.20
2017-04-06T08:32:29.335Z,71.60
2017-04-06T08:33:28.736Z,71.30
2017-04-06T08:34:28.865Z,71.30
2017-04-06T08:35:32.816Z,71.20
2017-04-06T08:36:36.073Z,71.90
2017-04-06T08:37:42.956Z,71.90
2017-04-06T08:38:49.801Z,71.90
2017-04-06T08:39:49.442Z,72.10
2017-04-06T08:40:48.906Z,72.20
2017-04-06T08:41:48.295Z,72.10
2017-04-06T08:42:47.642Z,72.30
2017-04-06T08:43:47.036Z,72.00
2017-04-06T08:44:47.172Z,71.40
2017-04-06T08:45:46.636Z,71.20
2017-04-06T08:46:46.770Z,71.10
2017-04-06T08:47:46.170Z,70.70
2017-04-06T08:48:46.289Z,70.70
2017-04-06T08:49:45.691Z,70.20
2017-04-06T08:50:45.199Z,70.50
2017-04-06T08:51:44.586Z,70.60
2017-04-06T08:52:44.198Z,70.50
2017-04-06T08:53:43.597Z,70.90
2017-04-06T08:54:43.718Z,71.30
2017-04-06T08:55:43.885Z,70.50
2017-04-06T08:56:43.850Z,70.70
2017-04-06T08:57:43.257Z,71.10
2017-04-06T08:58:42.649Z,70.80
2017-04-06T08:59:42.009Z,70.80
2017-04-06T09:00:41.380Z,70.70
2017-04-06T09:01:40.788Z,70.70
2017-04-06T09:02:40.279Z,70.80
2017-04-06T09:03:39.749Z,70.40
2017-04-06T09:04:39.127Z,70.60
2017-04-06T09:05:38.514Z,69.70
2017-04-06T09:06:37.881Z,69.50
2017-04-06T09:07:38.030Z,69.90
2017-04-06T09:08:37.478Z,70.50
2017-04-06T09:09:36.972Z,70.60
2017-04-06T09:10:36.378Z,70.50
2017-04-06T09:11:35.811Z,70.40
2017-04-06T09:12:35.151Z,70.00
2017-04-06T09:13:34.545Z,69.60
2017-04-06T09:14:33.999Z,69.70
2017-04-06T09:15:34.914Z,69.70
2017-04-06T09:16:34.296Z,69.40
2017-04-06T09:17:33.768Z,67.70
2017-04-06T09:18:33.192Z,67.30
2017-04-06T09:19:32.554Z,67.50
2017-04-06T09:20:31.928Z,67.30
2017-04-06T09:21:32.095Z,67.10
2017-04-06T09:22:31.482Z,67.30
2017-04-06T09:23:40.235Z,67.50
2017-04-06T09:24:43.127Z,67.80
2017-04-06T09:25:52.041Z,67.70
2017-04-06T09:26:52.189Z,67.40
2017-04-06T09:27:51.524Z,67.00
2017-04-06T09:28:51.082Z,66.30
2017-04-06T09:29:50.725Z,66.20
2017-04-06T09:30:54.148Z,65.50
2017-04-06T09:31:54.237Z,65.10
2017-04-06T09:32:55.567Z,65.50
2017-04-06T09:33:54.970Z,65.40
2017-04-06T09:34:55.896Z,65.80
2017-04-06T09:35:56.792Z,65.20
2017-04-06T09:36:57.647Z,65.40
2017-04-06T09:37:57.978Z,65.50
2017-04-06T09:39:02.147Z,65.60
2017-04-06T09:40:03.797Z,65.70
2017-04-06T09:41:04.536Z,65.80
2017-04-06T09:42:05.055Z,65.60
2017-04-06T09:43:05.732Z,64.40
2017-04-06T09:44:06.124Z,63.70
2017-04-06T09:45:07.814Z,62.70
2017-04-06T09:46:08.267Z,62.70
2017-04-06T09:47:09.413Z,62.80
2017-04-06T09:48:08.822Z,63.00
2017-04-06T09:49:08.275Z,63.00
2017-04-06T09:50:09.912Z,63.20
2017-04-06T09:51:09.667Z,63.40
2017-04-06T09:52:09.024Z,63.40
2017-04-06T09:53:08.478Z,63.20
2017-04-06T09:54:07.887Z,63.30
2017-04-06T09:55:19.875Z,63.40
2017-04-06T09:56:20.057Z,63.40
2017-04-06T09:57:19.505Z,63.50
2017-04-06T09:58:18.927Z,63.70
2017-04-06T09:59:18.368Z,64.00
2017-04-06T10:00:17.808Z,64.40
2017-04-06T10:01:17.570Z,64.30
2017-04-06T10:02:17.129Z,63.00
2017-04-06T10:03:16.915Z,62.10
2017-04-06T10:04:16.746Z,61.70
2017-04-06T10:05:16.160Z,62.10
2017-04-06T10:06:16.473Z,61.50
2017-04-06T10:07:17.885Z,62.00
2017-04-06T10:08:17.451Z,61.90
2017-04-06T10:09:17.599Z,61.40
2017-04-06T10:10:17.677Z,61.40
2017-04-06T10:11:17.740Z,61.60
2017-04-06T10:12:17.905Z,62.00
2017-04-06T10:13:17.712Z,62.50
2017-04-06T10:14:18.230Z,62.90
2017-04-06T10:15:18.153Z,62.80
2017-04-06T10:16:17.564Z,62.40
2017-04-06T10:17:16.967Z,62.10
2017-04-06T10:18:17.078Z,62.90
2017-04-06T10:19:16.454Z,61.70
2017-04-06T10:20:15.841Z,61.50
2017-04-06T10:21:15.217Z,61.10
2017-04-06T10:22:14.652Z,61.20
2017-04-06T10:23:14.005Z,60.70
2017-04-06T10:24:13.349Z,60.80
2017-04-06T10:25:12.783Z,60.40
2017-04-06T10:26:12.155Z,60.70
2017-04-06T10:27:11.551Z,60.90
2017-04-06T10:28:10.922Z,60.90
2017-04-06T10:29:10.351Z,60.70
2017-04-06T10:30:09.764Z,60.70
2017-04-06T10:31:09.190Z,61.00
2017-04-06T10:32:08.569Z,60.00
2017-04-06T10:33:07.931Z,58.50
2017-04-06T10:34:07.340Z,57.90
2017-04-06T10:35:06.720Z,57.60
2017-04-06T10:36:06.101Z,57.70
2017-04-06T10:37:05.810Z,58.20
2017-04-06T10:38:05.231Z,58.50
2017-04-06T10:39:05.314Z,59.10
2017-04-06T10:40:04.694Z,59.40
2017-04-06T10:41:04.112Z,60.00
2017-04-06T10:42:03.551Z,60.10
2017-04-06T10:43:02.941Z,60.00
2017-04-06T10:44:02.289Z,59.70
2017-04-06T10:45:01.645Z,59.20
2017-04-06T10:46:01.046Z,58.70
2017-04-06T10:47:00.467Z,58.50
2017-04-06T10:47:59.883Z,58.50
2017-04-06T10:48:59.306Z,58.60
2017-04-06T10:49:58.729Z,58.70
2017-04-06T10:50:58.822Z,58.90
2017-04-06T10:51:58.190Z,58.70
2017-04-06T10:52:57.652Z,58.70
2017-04-06T10:53:57.028Z,59.00
2017-04-06T10:54:56.378Z,59.10
2017-04-06T10:55:55.710Z,59.00
2017-04-06T10:56:55.080Z,59.10
2017-04-06T10:57:54.509Z,59.30
2017-04-06T10:58:53.915Z,59.60
2017-04-06T10:59:53.248Z,59.70
2017-04-06T11:00:52.628Z,59.90
2017-04-06T11:01:52.045Z,60.40
2017-04-06T11:02:51.435Z,60.40
2017-04-06T11:04:50.555Z,60.00
2017-04-06T11:05:49.953Z,59.70
2017-04-06T11:06:49.363Z,59.00
2017-04-06T11:07:48.810Z,58.90
2017-04-06T11:08:48.198Z,58.90
2017-04-06T11:09:47.543Z,59.00
2017-04-06T11:10:46.935Z,59.30
2017-04-06T11:11:46.302Z,59.50
2017-04-06T11:12:46.015Z,59.80
2017-04-06T11:13:45.387Z,60.30
2017-04-06T11:14:44.889Z,59.80
2017-04-06T11:15:44.253Z,59.20
2017-04-06T11:16:44.408Z,59.00
2017-04-06T11:17:43.853Z,59.30
2017-04-06T11:18:44.027Z,59.20
2017-04-06T11:19:43.432Z,59.30
2017-04-06T11:20:42.880Z,59.10
2017-04-06T11:21:43.023Z,59.00
2017-04-06T11:22:42.498Z,58.60
2017-04-06T11:23:41.948Z,58.20
2017-04-06T11:24:41.320Z,58.70
2017-04-06T11:25:40.821Z,59.20
2017-04-06T11:26:41.012Z,59.50
2017-04-06T11:27:40.451Z,59.70
2017-04-06T11:28:39.884Z,60.00
2017-04-06T11:29:39.346Z,60.00
2017-04-06T11:30:38.787Z,60.30
2017-04-06T11:31:38.221Z,59.50
2017-04-06T11:32:37.650Z,59.50
2017-04-06T11:33:37.142Z,59.90
2017-04-06T11:34:36.518Z,60.40
2017-04-06T11:35:35.978Z,61.00
2017-04-06T11:36:36.169Z,61.80
2017-04-06T11:37:35.668Z,61.80
2017-04-06T11:38:35.235Z,62.10
2017-04-06T11:39:34.673Z,62.20
2017-04-06T11:40:34.088Z,62.40
2017-04-06T11:41:33.507Z,62.40
2017-04-06T11:42:35.385Z,62.30
2017-04-06T11:43:35.571Z,62.40
2017-04-06T11:44:35.060Z,62.20
2017-04-06T11:45:34.544Z,62.00
2017-04-06T11:46:34.179Z,62.30
2017-04-06T11:47:33.561Z,61.90
2017-04-06T11:48:33.443Z,61.20
2017-04-06T11:49:32.820Z,60.60
2017-04-06T11:50:32.174Z,61.10
2017-04-06T11:51:31.564Z,60.60
2017-04-06T11:52:30.964Z,60.60
2017-04-06T11:53:30.424Z,60.50
2017-04-06T11:54:29.855Z,60.30
2017-04-06T11:55:29.233Z,60.40
2017-04-06T11:56:28.629Z,60.70
2017-04-06T11:57:28.033Z,60.80
2017-04-06T11:58:27.436Z,61.00
2017-04-06T11:59:27.645Z,60.60
2017-04-06T12:00:27.120Z,60.70
2017-04-06T12:01:26.496Z,60.90
2017-04-06T12:02:25.971Z,61.20
2017-04-06T12:03:25.328Z,61.10
2017-04-06T12:04:25.523Z,60.40
2017-04-06T12:05:25.678Z,60.00
2017-04-06T12:06:25.369Z,60.20
2017-04-06T12:07:26.042Z,60.30
2017-04-06T12:08:25.454Z,60.80
2017-04-06T12:09:24.899Z,61.00
2017-04-06T12:10:24.407Z,60.90
2017-04-06T12:11:23.834Z,61.10
2017-04-06T12:12:23.977Z,61.20
2017-04-06T12:13:23.750Z,61.00
2017-04-06T12:14:23.225Z,60.60
2017-04-06T12:15:22.625Z,59.10
2017-04-06T12:16:22.023Z,58.70
2017-04-06T12:17:22.745Z,58.50
2017-04-06T12:18:22.341Z,59.10
2017-04-06T12:19:21.782Z,59.80
2017-04-06T12:20:21.143Z,59.80
2017-04-06T12:21:21.337Z,59.90
2017-04-06T12:22:20.720Z,60.20
2017-04-06T12:23:20.167Z,60.50
2017-04-06T12:24:19.942Z,60.50
2017-04-06T12:25:19.468Z,60.40
2017-04-06T12:26:20.570Z,60.40
2017-04-06T12:27:19.990Z,60.60
2017-04-06T12:28:20.365Z,60.60
2017-04-06T12:29:20.909Z,60.50
2017-04-06T12:30:20.350Z,59.80
2017-04-06T12:31:20.332Z,59.40
2017-04-06T12:32:19.746Z,59.00
2017-04-06T12:33:19.158Z,58.60
2017-04-06T12:34:18.587Z,58.90
2017-04-06T12:35:18.369Z,59.40
2017-04-06T12:36:18.143Z,59.70
2017-04-06T12:37:17.515Z,59.70
2017-04-06T12:38:16.957Z,59.60
2017-04-06T12:39:19.815Z,59.50
2017-04-06T12:40:19.268Z,59.20
2017-04-06T12:41:18.618Z,59.10
2017-04-06T12:42:18.029Z,59.20
2017-04-06T12:43:19.258Z,59.40
2017-04-06T12:44:18.671Z,59.00
2017-04-06T12:45:18.008Z,58.80
2017-04-06T12:46:17.319Z,58.70
2017-04-06T12:47:17.409Z,58.50
2017-04-06T12:48:16.697Z,58.40
2017-04-06T12:49:15.982Z,58.10
2017-04-06T12:51:15.690Z,58.40
2017-04-06T12:52:15.118Z,58.60
2017-04-06T12:53:14.459Z,59.10
2017-04-06T12:54:14.090Z,58.80
2017-04-06T12:55:14.555Z,59.80
2017-04-06T12:56:13.918Z,59.50
2017-04-06T12:57:13.338Z,59.60